Time;durP1;ratioP1;P1;durP2;ratioP2;P2;SDS_P1;SDS_P2;PMS_P1;PMS_P2;Temp;Humidity;BMP_temperature;BMP_pressure;BME280_temperature;BME280_humidity;BME280_pressure;Samples;Min_cycle;Max_cycle;Signal;HPM_P1;HPM_P2
2021/11/15 00:02:24;;;;;;;1.42;1.00;;;23.70;51.60;;;;;;4913053;29;20755;-43
2021/11/15 00:04:55;;;;;;;3.85;1.20;;;23.70;51.60;;;;;;4899699;29;20225;-43
2021/11/15 00:07:26;;;;;;;3.13;1.30;;;23.80;51.40;;;;;;4910528;29;20240;-44
2021/11/15 00:09:56;;;;;;;1.80;1.00;;;23.80;51.40;;;;;;4908838;29;20247;-44
2021/11/15 00:12:29;;;;;;;2.78;1.42;;;23.80;51.30;;;;;;4906759;29;20284;-43
2021/11/15 00:14:59;;;;;;;3.42;1.63;;;23.80;51.20;;;;;;4902520;29;20310;-44
2021/11/15 00:17:30;;;;;;;2.22;1.42;;;23.80;51.40;;;;;;4911623;29;20237;-43
2021/11/15 00:20:00;;;;;;;2.45;1.50;;;23.90;51.70;;;;;;4912513;29;20236;-44
2021/11/15 00:22:31;;;;;;;2.58;1.50;;;23.90;51.20;;;;;;4914226;29;20291;-44
2021/11/15 00:25:02;;;;;;;2.58;1.40;;;23.90;51.10;;;;;;4912658;29;20324;-47
2021/11/15 00:27:34;;;;;;;2.88;1.50;;;24.00;51.20;;;;;;4911512;29;20295;-43
2021/11/15 00:30:05;;;;;;;2.08;1.13;;;24.00;51.00;;;;;;4912264;29;20291;-44
2021/11/15 00:32:36;;;;;;;2.03;1.25;;;24.00;50.80;;;;;;4911275;29;20291;-45
2021/11/15 00:35:07;;;;;;;1.73;1.27;;;24.00;50.50;;;;;;4911030;29;20315;-43
2021/11/15 00:37:38;;;;;;;1.52;1.20;;;24.00;50.20;;;;;;4911887;29;20279;-45
2021/11/15 00:40:11;;;;;;;1.92;1.25;;;24.00;50.70;;;;;;4910995;29;20219;-44
2021/11/15 00:42:44;;;;;;;2.08;1.10;;;24.00;49.80;;;;;;4911578;29;20283;-43
2021/11/15 00:45:16;;;;;;;1.50;1.00;;;24.00;49.40;;;;;;4912369;29;20234;-45
2021/11/15 00:47:47;;;;;;;1.80;1.20;;;24.00;49.20;;;;;;4912222;29;20228;-43
2021/11/15 00:50:20;;;;;;;2.28;0.98;;;24.10;49.00;;;;;;4911281;29;20628;-47
2021/11/15 00:52:52;;;;;;;2.15;1.25;;;24.10;48.90;;;;;;4900445;29;20935;-44
2021/11/15 00:55:23;;;;;;;2.25;1.02;;;24.10;48.70;;;;;;4907446;29;20307;-45
2021/11/15 00:57:55;;;;;;;1.95;1.10;;;24.10;48.70;;;;;;4911618;29;20210;-46
2021/11/15 01:00:28;;;;;;;2.42;1.13;;;24.10;48.80;;;;;;4911543;29;20211;-45
2021/11/15 01:03:00;;;;;;;1.42;1.00;;;24.10;49.00;;;;;;4909167;29;20287;-44
2021/11/15 01:05:30;;;;;;;1.13;0.90;;;24.10;49.10;;;;;;4911007;29;20800;-45
2021/11/15 01:08:01;;;;;;;1.52;0.90;;;24.10;49.00;;;;;;4896420;29;20717;-44
2021/11/15 01:10:32;;;;;;;2.97;1.00;;;24.10;49.00;;;;;;4895382;29;20288;-45
2021/11/15 01:13:05;;;;;;;1.35;0.90;;;24.10;48.90;;;;;;4898101;29;20200;-44
2021/11/15 01:15:39;;;;;;;1.70;0.95;;;24.20;48.80;;;;;;4910272;29;20290;-44
2021/11/15 01:18:09;;;;;;;1.70;0.95;;;24.20;48.80;;;;;;4909579;29;20770;-45
2021/11/15 01:20:40;;;;;;;0.82;0.75;;;24.20;48.80;;;;;;4911289;29;20207;-44
2021/11/15 01:23:10;;;;;;;1.38;0.88;;;24.20;48.60;;;;;;4910816;29;20294;-44
2021/11/15 01:25:43;;;;;;;0.90;0.70;;;24.20;48.40;;;;;;4908704;29;20571;-44
2021/11/15 01:28:15;;;;;;;2.22;0.80;;;24.20;48.30;;;;;;4906413;29;20287;-43
2021/11/15 01:30:46;;;;;;;2.28;1.00;;;24.20;48.00;;;;;;4912305;29;20287;-43
2021/11/15 01:33:16;;;;;;;2.15;0.80;;;24.20;47.60;;;;;;4911999;29;20218;-44
2021/11/15 01:35:47;;;;;;;1.08;0.75;;;24.30;47.40;;;;;;4911099;29;20288;-43
2021/11/15 01:38:17;;;;;;;1.33;0.75;;;24.30;47.30;;;;;;4910676;29;20211;-44
2021/11/15 01:40:48;;;;;;;1.33;0.63;;;24.20;47.20;;;;;;4909499;29;20300;-43
2021/11/15 01:43:20;;;;;;;1.33;0.82;;;24.30;47.40;;;;;;4910818;29;20208;-43
2021/11/15 01:45:51;;;;;;;1.17;0.60;;;24.30;47.30;;;;;;4910905;29;20214;-44
2021/11/15 01:48:22;;;;;;;1.13;0.60;;;24.30;47.40;;;;;;4910259;29;20287;-43
2021/11/15 01:50:52;;;;;;;2.10;0.80;;;24.30;47.30;;;;;;4910270;29;20258;-44
2021/11/15 01:53:23;;;;;;;1.52;0.70;;;24.30;47.20;;;;;;4896481;29;20635;-44
2021/11/15 01:55:53;;;;;;;1.15;0.60;;;24.30;47.20;;;;;;4911423;29;20235;-43
2021/11/15 01:58:26;;;;;;;1.85;0.70;;;24.40;46.80;;;;;;4911030;29;20204;-45
2021/11/15 02:00:59;;;;;;;0.95;0.60;;;24.40;46.60;;;;;;4910756;29;20287;-43
2021/11/15 02:03:30;;;;;;;0.90;0.70;;;24.40;46.30;;;;;;4907462;29;20235;-45
2021/11/15 02:06:03;;;;;;;1.10;0.80;;;24.40;46.10;;;;;;4910721;29;20291;-43
2021/11/15 02:08:34;;;;;;;1.27;0.50;;;24.40;46.10;;;;;;4908894;29;20200;-43
2021/11/15 02:11:04;;;;;;;1.00;0.57;;;24.50;46.10;;;;;;4910675;29;20196;-44
2021/11/15 02:13:37;;;;;;;0.50;0.50;;;24.50;45.90;;;;;;4910676;29;20242;-44
2021/11/15 02:16:08;;;;;;;1.05;0.50;;;24.50;45.60;;;;;;4910503;29;20293;-43
2021/11/15 02:18:38;;;;;;;0.85;0.60;;;24.50;45.60;;;;;;4910393;29;20280;-43
2021/11/15 02:21:11;;;;;;;1.23;0.45;;;24.50;45.50;;;;;;4910299;29;20291;-43
2021/11/15 02:23:45;;;;;;;3.65;0.88;;;24.60;45.60;;;;;;4896486;29;20780;-43
2021/11/15 02:26:18;;;;;;;1.75;0.77;;;24.60;45.40;;;;;;4910062;29;20295;-43
2021/11/15 02:28:50;;;;;;;0.85;0.60;;;24.60;45.60;;;;;;4902671;29;20232;-44
2021/11/15 02:31:22;;;;;;;1.15;0.60;;;24.60;45.80;;;;;;4903500;29;20295;-44
2021/11/15 02:33:53;;;;;;;1.85;0.52;;;24.70;45.70;;;;;;4910522;29;20391;-44
2021/11/15 02:36:27;;;;;;;1.25;0.60;;;24.70;45.60;;;;;;4910417;29;20216;-44
2021/11/15 02:38:58;;;;;;;1.05;0.70;;;24.70;45.60;;;;;;4910706;29;20287;-44
2021/11/15 02:41:29;;;;;;;0.85;0.63;;;24.70;45.50;;;;;;4895315;29;20780;-43
2021/11/15 02:44:01;;;;;;;1.50;0.65;;;24.80;45.60;;;;;;4910782;29;20318;-44
2021/11/15 02:46:34;;;;;;;2.15;0.70;;;24.80;45.70;;;;;;4910469;29;20289;-43
2021/11/15 02:49:05;;;;;;;1.58;0.70;;;24.80;45.60;;;;;;4909422;29;20676;-44
2021/11/15 02:51:37;;;;;;;0.85;0.60;;;24.90;45.40;;;;;;4898031;29;20288;-44
2021/11/15 02:54:08;;;;;;;1.38;0.60;;;24.90;45.20;;;;;;4898009;29;20308;-43
2021/11/15 02:56:41;;;;;;;0.93;0.50;;;24.90;45.20;;;;;;4901254;29;20203;-47
2021/11/15 02:59:11;;;;;;;1.02;0.40;;;24.90;45.30;;;;;;4910271;29;20284;-43
2021/11/15 03:01:42;;;;;;;0.65;0.40;;;25.00;45.30;;;;;;4910536;29;20322;-47
2021/11/15 03:04:12;;;;;;;0.63;0.50;;;25.00;45.20;;;;;;4898835;29;20666;-44
2021/11/15 03:06:45;;;;;;;1.08;0.65;;;25.10;45.30;;;;;;4894768;29;20777;-44
2021/11/15 03:09:15;;;;;;;0.95;0.50;;;25.10;45.30;;;;;;4898599;29;20200;-43
2021/11/15 03:11:46;;;;;;;1.42;0.60;;;25.10;45.10;;;;;;4902064;29;20201;-43
2021/11/15 03:14:16;;;;;;;1.45;0.60;;;25.10;45.10;;;;;;4908567;29;20335;-44
2021/11/15 03:16:47;;;;;;;1.10;0.60;;;25.10;45.20;;;;;;4912634;29;20231;-43
2021/11/15 03:19:17;;;;;;;3.03;0.50;;;25.10;45.10;;;;;;4907964;29;20284;-46
2021/11/15 03:21:49;;;;;;;0.93;0.47;;;25.10;45.00;;;;;;4902873;29;20200;-43
2021/11/15 03:24:20;;;;;;;1.25;0.60;;;25.20;44.90;;;;;;4914525;29;20259;-44
2021/11/15 03:26:50;;;;;;;0.70;0.50;;;25.20;44.80;;;;;;4897338;29;20208;-44
2021/11/15 03:29:21;;;;;;;1.00;0.50;;;25.20;44.60;;;;;;4912810;29;20283;-43
2021/11/15 03:31:51;;;;;;;0.98;0.50;;;25.20;44.70;;;;;;4912778;29;20687;-46
2021/11/15 03:34:22;;;;;;;0.55;0.35;;;25.30;44.60;;;;;;4912662;29;20596;-45
2021/11/15 03:36:54;;;;;;;1.40;0.30;;;25.30;44.20;;;;;;4904766;29;20299;-44
2021/11/15 03:39:25;;;;;;;0.95;0.50;;;25.30;43.70;;;;;;4905440;29;20291;-45
2021/11/15 03:41:55;;;;;;;1.20;0.50;;;25.30;43.30;;;;;;4912955;29;20283;-44
2021/11/15 03:44:26;;;;;;;1.73;0.40;;;25.30;43.00;;;;;;4911661;29;20308;-44
2021/11/15 03:46:57;;;;;;;1.45;0.60;;;25.30;42.80;;;;;;4912434;29;20653;-44
2021/11/15 03:49:27;;;;;;;1.90;0.60;;;25.30;42.90;;;;;;4912279;29;20226;-44
2021/11/15 03:52:00;;;;;;;0.55;0.40;;;25.30;42.60;;;;;;4898079;29;20201;-46
2021/11/15 03:54:30;;;;;;;4.38;0.70;;;25.30;42.80;;;;;;4912642;29;20323;-49
2021/11/15 03:57:01;;;;;;;1.55;0.50;;;25.30;42.40;;;;;;4912513;29;20206;-47
2021/11/15 03:59:31;;;;;;;7.03;1.00;;;25.30;42.50;;;;;;4910490;29;20720;-45
2021/11/15 04:02:02;;;;;;;4.68;0.70;;;25.30;42.10;;;;;;4912072;29;20232;-46
2021/11/15 04:04:48;;;;;;;1.98;0.60;;;25.30;40.50;;;;;;4908942;29;20309;-45
2021/11/15 04:07:28;;;;;;;5.72;0.93;;;25.30;39.60;;;;;;4902410;29;20229;-45
2021/11/15 04:10:00;;;;;;;5.38;0.50;;;25.20;38.20;;;;;;4902445;29;20196;-45
2021/11/15 04:12:31;;;;;;;2.63;0.70;;;25.20;38.10;;;;;;4913420;29;20196;-44
2021/11/15 04:15:02;;;;;;;2.85;1.02;;;25.20;38.30;;;;;;4897766;29;20303;-46
2021/11/15 04:17:32;;;;;;;2.63;0.40;;;25.20;38.70;;;;;;4910680;29;20288;-45
2021/11/15 04:20:03;;;;;;;4.15;0.70;;;25.20;39.40;;;;;;4911625;29;20287;-45
2021/11/15 04:22:36;;;;;;;2.05;0.60;;;25.20;39.80;;;;;;4910706;29;20648;-48
2021/11/15 04:25:08;;;;;;;2.55;0.60;;;25.20;39.70;;;;;;4910857;29;20227;-46
2021/11/15 04:27:38;;;;;;;1.20;0.55;;;25.20;40.10;;;;;;4904419;29;20293;-45
2021/11/15 04:30:12;;;;;;;3.35;0.68;;;25.20;39.80;;;;;;4900269;29;20291;-45
2021/11/15 04:32:43;;;;;;;0.55;0.52;;;25.20;39.80;;;;;;4900326;29;20267;-46
2021/11/15 04:35:17;;;;;;;3.33;0.80;;;25.20;39.80;;;;;;4911348;29;20803;-45
2021/11/15 04:37:49;;;;;;;2.92;0.47;;;25.30;40.00;;;;;;4913706;29;20216;-45
2021/11/15 04:40:20;;;;;;;1.60;0.55;;;25.30;40.40;;;;;;4913659;29;20295;-46
2021/11/15 04:42:50;;;;;;;2.72;0.60;;;25.30;40.40;;;;;;4912098;29;20204;-46
2021/11/15 04:45:24;;;;;;;1.60;0.60;;;25.30;40.60;;;;;;4912144;29;20239;-45
2021/11/15 04:47:55;;;;;;;4.72;0.63;;;25.30;40.60;;;;;;4912597;29;20211;-49
2021/11/15 04:50:26;;;;;;;1.25;0.43;;;25.30;40.10;;;;;;4921421;29;20250;-48
2021/11/15 04:52:58;;;;;;;2.13;0.38;;;25.30;39.30;;;;;;4926542;29;20206;-47
2021/11/15 04:55:29;;;;;;;0.73;0.43;;;25.30;37.90;;;;;;4925934;29;20302;-46
2021/11/15 04:58:00;;;;;;;1.17;0.30;;;25.30;37.30;;;;;;4925901;29;20652;-46
2021/11/15 05:00:32;;;;;;;1.42;0.40;;;25.20;37.10;;;;;;4927713;29;20882;-47
2021/11/15 05:03:02;;;;;;;1.02;0.38;;;25.20;36.90;;;;;;4926523;29;20184;-45
2021/11/15 05:05:34;;;;;;;0.88;0.28;;;25.20;37.00;;;;;;4926742;29;20319;-46
2021/11/15 05:08:06;;;;;;;2.22;0.40;;;25.10;37.10;;;;;;4924224;29;20209;-47
2021/11/15 05:10:37;;;;;;;0.63;0.40;;;25.10;36.70;;;;;;4925054;29;20921;-45
2021/11/15 05:13:07;;;;;;;0.60;0.30;;;25.10;37.00;;;;;;4927046;29;20726;-47
2021/11/15 05:15:38;;;;;;;2.35;0.38;;;25.10;37.40;;;;;;4924577;29;20211;-44
2021/11/15 05:18:08;;;;;;;0.70;0.30;;;25.10;37.70;;;;;;4924480;29;20283;-47
2021/11/15 05:20:39;;;;;;;1.35;0.30;;;25.10;37.80;;;;;;4926778;29;20202;-44
2021/11/15 05:23:11;;;;;;;0.32;0.20;;;25.10;37.80;;;;;;4925451;29;20286;-45
2021/11/15 05:25:42;;;;;;;0.68;0.20;;;25.10;37.60;;;;;;4927779;29;20825;-47
2021/11/15 05:28:13;;;;;;;0.50;0.22;;;25.00;37.70;;;;;;4926834;29;20744;-45
2021/11/15 05:30:43;;;;;;;0.63;0.28;;;25.10;37.90;;;;;;4927906;29;20290;-45
2021/11/15 05:33:14;;;;;;;1.48;0.30;;;25.00;38.40;;;;;;4922763;29;20234;-43
2021/11/15 05:35:44;;;;;;;0.70;0.30;;;25.00;38.50;;;;;;4926097;29;20207;-39
2021/11/15 05:38:16;;;;;;;1.00;0.22;;;25.00;37.90;;;;;;4926310;29;20231;-41
2021/11/15 05:40:47;;;;;;;0.63;0.30;;;24.90;37.60;;;;;;4925521;29;20202;-39
2021/11/15 05:43:18;;;;;;;0.50;0.30;;;24.90;36.70;;;;;;4926449;29;20195;-39
2021/11/15 05:45:48;;;;;;;27.60;18.15;;;24.80;36.80;;;;;;4926287;29;20227;-44
2021/11/15 05:48:18;;;;;;;52.85;36.70;;;24.80;37.20;;;;;;4924274;29;20287;-46
2021/11/15 05:50:49;;;;;;;38.92;27.55;;;24.70;37.30;;;;;;4927696;29;20227;-45
2021/11/15 05:54:03;;;;;;;45.88;31.88;;;24.70;37.60;;;;;;4923897;29;20287;-45
2021/11/15 05:56:33;;;;;;;48.08;34.55;;;24.70;38.10;;;;;;4926414;29;20208;-46
2021/11/15 05:59:04;;;;;;;49.30;35.60;;;24.80;38.50;;;;;;4923364;29;20314;-47
2021/11/15 06:01:34;;;;;;;48.85;35.70;;;24.70;38.70;;;;;;4924729;29;20203;-45
2021/11/15 06:04:04;;;;;;;51.17;36.83;;;24.70;38.90;;;;;;4927900;29;20306;-47
2021/11/15 06:06:35;;;;;;;50.92;37.05;;;24.80;39.00;;;;;;4924265;29;20234;-45
2021/11/15 06:09:07;;;;;;;49.45;34.83;;;24.80;39.10;;;;;;4922053;29;20283;-45
2021/11/15 06:11:38;;;;;;;53.25;34.90;;;24.80;39.20;;;;;;4925368;29;20238;-46
2021/11/15 06:14:08;;;;;;;47.63;34.03;;;24.80;39.40;;;;;;4925613;29;20295;-44
2021/11/15 06:16:39;;;;;;;48.38;34.38;;;24.80;39.40;;;;;;4927147;29;20291;-45
2021/11/15 06:19:09;;;;;;;44.97;33.08;;;24.80;39.60;;;;;;4925218;29;20607;-45
2021/11/15 06:21:40;;;;;;;47.25;34.53;;;24.80;39.60;;;;;;4926269;29;21427;-45
2021/11/15 06:24:12;;;;;;;45.85;32.90;;;24.80;40.00;;;;;;4925878;29;20227;-47
2021/11/15 06:26:43;;;;;;;47.17;32.35;;;24.80;40.10;;;;;;4924794;29;20227;-48
2021/11/15 06:29:13;;;;;;;41.03;30.20;;;24.90;40.50;;;;;;4926581;29;20670;-45
2021/11/15 06:31:44;;;;;;;41.50;31.00;;;24.90;40.70;;;;;;4925040;29;20286;-48
2021/11/15 06:34:14;;;;;;;39.72;30.73;;;24.90;40.80;;;;;;4926639;29;20221;-45
2021/11/15 06:36:45;;;;;;;40.83;30.17;;;24.80;40.80;;;;;;4926214;29;20299;-48
2021/11/15 06:39:17;;;;;;;39.10;28.20;;;24.90;41.00;;;;;;4925360;29;20192;-46
2021/11/15 06:41:48;;;;;;;38.00;27.70;;;24.90;41.10;;;;;;4926167;29;20287;-45
2021/11/15 06:44:19;;;;;;;34.40;25.77;;;24.90;41.20;;;;;;4925990;29;20223;-47
2021/11/15 06:46:49;;;;;;;33.20;25.65;;;24.90;41.00;;;;;;4929140;29;20231;-45
2021/11/15 06:49:20;;;;;;;33.85;25.27;;;24.90;40.90;;;;;;4927710;29;20599;-45
2021/11/15 06:51:51;;;;;;;31.80;24.05;;;24.90;40.70;;;;;;4927393;29;20206;-47
2021/11/15 06:54:23;;;;;;;30.85;23.00;;;24.90;40.60;;;;;;4929371;29;20307;-45
2021/11/15 06:56:54;;;;;;;28.48;23.10;;;24.90;40.60;;;;;;4927681;29;20208;-47
2021/11/15 06:59:24;;;;;;;27.73;22.08;;;24.90;40.80;;;;;;4929405;29;20211;-47
2021/11/15 07:01:55;;;;;;;25.25;19.75;;;24.90;40.90;;;;;;4916671;29;20283;-46
2021/11/15 07:04:25;;;;;;;25.88;20.70;;;24.90;40.90;;;;;;4929351;29;20672;-45
2021/11/15 07:06:56;;;;;;;26.02;18.95;;;24.90;41.00;;;;;;4927658;29;20255;-46
2021/11/15 07:09:29;;;;;;;20.42;17.10;;;24.90;40.90;;;;;;4929213;29;20322;-45
2021/11/15 07:11:59;;;;;;;20.85;17.15;;;24.90;41.70;;;;;;4926333;29;20203;-46
2021/11/15 07:14:30;;;;;;;20.65;14.90;;;24.90;41.30;;;;;;4928724;29;20306;-46
2021/11/15 07:17:00;;;;;;;10.38;8.10;;;24.80;41.60;;;;;;4929425;29;20561;-46
2021/11/15 07:19:31;;;;;;;10.18;8.73;;;24.80;41.60;;;;;;4930042;29;20195;-45
2021/11/15 07:22:01;;;;;;;13.15;10.98;;;24.80;41.40;;;;;;4929032;29;23465;-46
2021/11/15 07:24:34;;;;;;;8.95;7.90;;;24.80;41.00;;;;;;4928703;29;20385;-45
2021/11/15 07:27:04;;;;;;;11.65;8.45;;;24.80;41.10;;;;;;4926334;29;20227;-45
2021/11/15 07:29:35;;;;;;;9.02;7.25;;;24.80;41.20;;;;;;4928458;29;20202;-45
2021/11/15 07:32:10;;;;;;;10.25;7.18;;;24.80;41.20;;;;;;4914771;29;21215;-45
2021/11/15 07:34:41;;;;;;;12.65;8.35;;;24.80;41.10;;;;;;4925780;29;20237;-47
2021/11/15 07:37:12;;;;;;;8.73;6.88;;;24.70;41.00;;;;;;4928978;29;20298;-46
2021/11/15 07:39:44;;;;;;;8.00;6.60;;;24.70;41.00;;;;;;4929118;29;20911;-46
2021/11/15 07:42:15;;;;;;;7.20;6.18;;;24.70;40.90;;;;;;4927877;29;20196;-45
2021/11/15 07:44:46;;;;;;;10.07;6.47;;;24.70;40.80;;;;;;4930335;29;20314;-44
2021/11/15 07:47:17;;;;;;;9.07;6.97;;;24.70;41.00;;;;;;4928330;29;20228;-50
2021/11/15 07:49:48;;;;;;;7.93;6.28;;;24.70;41.10;;;;;;4924466;29;20335;-44
2021/11/15 07:52:19;;;;;;;7.60;5.80;;;24.70;41.20;;;;;;4926591;29;20243;-45
2021/11/15 07:54:52;;;;;;;7.18;5.72;;;24.60;41.40;;;;;;4925998;29;20678;-48
2021/11/15 07:57:22;;;;;;;7.25;5.82;;;24.60;41.50;;;;;;4927845;29;20291;-45
2021/11/15 07:59:53;;;;;;;7.20;5.40;;;24.60;41.60;;;;;;4925586;29;20656;-45
2021/11/15 08:02:24;;;;;;;7.55;5.57;;;24.60;41.70;;;;;;4927912;29;20635;-46
2021/11/15 08:04:54;;;;;;;9.38;6.10;;;24.60;41.80;;;;;;4926252;29;20231;-45
2021/11/15 08:07:24;;;;;;;7.20;5.50;;;24.50;41.80;;;;;;4927168;29;20315;-46
2021/11/15 08:09:57;;;;;;;8.45;5.65;;;24.50;41.90;;;;;;4923835;29;20283;-45
2021/11/15 08:12:36;;;;;;;6.22;4.90;;;24.50;42.00;;;;;;4923835;29;20203;-47
2021/11/15 08:15:08;;;;;;;6.40;5.20;;;24.50;42.00;;;;;;4922326;29;20219;-45
2021/11/15 08:17:40;;;;;;;8.05;5.85;;;24.50;42.20;;;;;;4920962;29;20944;-47
2021/11/15 08:20:14;;;;;;;6.00;5.40;;;24.50;42.10;;;;;;4923262;29;20283;-47
2021/11/15 08:22:47;;;;;;;5.28;4.75;;;24.50;42.10;;;;;;4926714;29;20210;-45
2021/11/15 08:25:54;;;;;;;5.63;4.80;;;24.50;42.00;;;;;;4926387;29;20220;-49
2021/11/15 08:28:28;;;;;;;6.00;4.57;;;24.40;41.80;;;;;;4924228;29;20288;-47
2021/11/15 08:31:00;;;;;;;6.03;4.45;;;24.40;41.80;;;;;;4926237;29;20203;-46
2021/11/15 08:33:31;;;;;;;4.85;3.95;;;24.40;41.80;;;;;;4927666;29;20318;-47
2021/11/15 08:36:02;;;;;;;6.47;4.10;;;24.40;41.90;;;;;;4928691;29;20212;-47
2021/11/15 08:38:52;;;;;;;7.63;3.97;;;24.30;41.80;;;;;;4929297;29;20292;-47
2021/11/15 08:41:25;;;;;;;4.80;4.00;;;24.30;41.90;;;;;;4927522;29;20217;-48
2021/11/15 08:43:59;;;;;;;4.72;3.83;;;24.30;42.20;;;;;;4929091;29;20306;-48
2021/11/15 08:46:31;;;;;;;4.40;3.83;;;24.30;42.10;;;;;;4926738;29;20231;-45
2021/11/15 08:49:08;;;;;;;4.63;3.92;;;24.20;42.20;;;;;;4926601;29;20299;-49
2021/11/15 08:51:39;;;;;;;5.85;4.10;;;24.20;42.20;;;;;;4925541;29;20282;-47
2021/11/15 08:54:14;;;;;;;5.10;3.83;;;24.20;42.30;;;;;;4925261;29;20591;-48
2021/11/15 08:56:45;;;;;;;4.13;3.53;;;24.20;42.40;;;;;;4925801;29;20238;-51
2021/11/15 08:59:17;;;;;;;5.72;3.88;;;24.20;42.50;;;;;;4925320;29;20716;-50
2021/11/15 09:01:48;;;;;;;5.13;3.92;;;24.20;42.60;;;;;;4924589;29;21441;-45
2021/11/15 09:04:19;;;;;;;5.88;3.72;;;24.20;42.80;;;;;;4924898;29;20219;-53
2021/11/15 09:06:50;;;;;;;5.30;3.60;;;24.10;42.80;;;;;;4927970;29;20307;-48
2021/11/15 09:09:22;;;;;;;7.32;3.75;;;24.10;43.00;;;;;;4928729;29;20206;-47
2021/11/15 09:11:55;;;;;;;4.72;3.92;;;24.10;43.10;;;;;;4926154;29;20203;-53
2021/11/15 09:14:28;;;;;;;4.97;3.53;;;24.10;43.20;;;;;;4924607;29;20302;-50
2021/11/15 09:16:59;;;;;;;5.72;3.78;;;24.10;43.20;;;;;;4925559;29;20210;-53
2021/11/15 09:19:29;;;;;;;5.43;4.00;;;24.00;43.30;;;;;;4925566;29;20995;-49
2021/11/15 09:22:00;;;;;;;6.15;3.78;;;24.00;43.40;;;;;;4927452;29;20298;-47
2021/11/15 09:24:31;;;;;;;5.63;3.85;;;24.00;43.50;;;;;;4925363;29;20335;-47
2021/11/15 09:27:04;;;;;;;5.72;3.58;;;24.00;43.50;;;;;;4924362;29;20237;-52
2021/11/15 09:29:36;;;;;;;5.43;3.63;;;24.00;43.50;;;;;;4927713;29;20742;-48
2021/11/15 09:32:07;;;;;;;4.85;3.45;;;24.00;43.60;;;;;;4926245;29;20816;-48
2021/11/15 09:34:40;;;;;;;4.97;3.40;;;23.90;43.50;;;;;;4925969;29;20231;-44
2021/11/15 09:37:10;;;;;;;5.65;4.00;;;24.00;43.60;;;;;;4924861;29;20239;-49
2021/11/15 09:39:42;;;;;;;4.45;3.38;;;23.90;43.60;;;;;;4920540;29;20210;-48
2021/11/15 09:42:12;;;;;;;4.10;2.92;;;23.90;43.60;;;;;;4923561;29;20196;-46
2021/11/15 09:44:46;;;;;;;6.68;4.13;;;23.80;43.70;;;;;;4925031;29;20306;-50
2021/11/15 09:47:17;;;;;;;4.95;3.72;;;23.80;43.80;;;;;;4926551;29;20486;-48
2021/11/15 09:49:47;;;;;;;4.88;3.33;;;23.80;44.10;;;;;;4926161;29;20667;-47
2021/11/15 09:52:18;;;;;;;5.43;3.83;;;23.80;44.20;;;;;;4927473;29;20745;-49
2021/11/15 09:54:49;;;;;;;6.45;4.22;;;23.80;44.30;;;;;;4927881;29;20310;-48
2021/11/15 09:57:20;;;;;;;5.00;3.85;;;23.80;44.30;;;;;;4914637;29;20295;-45
2021/11/15 09:59:52;;;;;;;6.43;4.07;;;23.70;44.30;;;;;;4911875;29;20200;-45
2021/11/15 10:02:22;;;;;;;6.25;4.15;;;23.70;44.30;;;;;;4909284;29;20703;-45
2021/11/15 10:04:53;;;;;;;5.47;3.60;;;23.70;44.30;;;;;;4948323;23;20769;-50
2021/11/15 10:07:38;;;;;;;4.57;3.42;;;23.70;44.30;;;;;;4947255;28;20266;-50
2021/11/15 10:10:38;;;;;;;4.05;3.50;;;23.60;44.20;;;;;;4947351;28;20234;-51
2021/11/15 10:13:24;;;;;;;5.03;3.30;;;23.60;44.20;;;;;;4943765;28;20198;-49
2021/11/15 10:16:08;;;;;;;8.30;3.38;;;23.60;44.30;;;;;;4929109;29;20838;-51
2021/11/15 10:18:42;;;;;;;6.40;3.22;;;23.50;44.10;;;;;;4929521;29;20293;-53
2021/11/15 10:21:15;;;;;;;5.90;3.20;;;23.50;44.10;;;;;;4933430;29;20288;-51
2021/11/15 10:23:49;;;;;;;5.18;3.17;;;23.50;44.10;;;;;;4933473;29;20306;-49
2021/11/15 10:26:36;;;;;;;3.85;3.28;;;23.50;44.20;;;;;;4933844;29;20260;-51
2021/11/15 10:29:10;;;;;;;4.10;3.00;;;23.40;44.20;;;;;;4934573;29;20537;-53
2021/11/15 10:31:49;;;;;;;4.32;3.13;;;23.50;44.20;;;;;;4933364;29;20210;-51
2021/11/15 10:34:27;;;;;;;5.30;3.15;;;23.40;44.30;;;;;;4932700;29;20230;-51
2021/11/15 10:37:02;;;;;;;4.38;3.05;;;23.40;44.40;;;;;;4932086;29;20237;-50
2021/11/15 10:39:36;;;;;;;3.45;2.83;;;23.40;45.10;;;;;;4934163;29;20790;-51
2021/11/15 10:42:11;;;;;;;4.15;3.25;;;23.40;44.50;;;;;;4931788;29;20238;-49
2021/11/15 10:44:49;;;;;;;4.65;3.10;;;23.30;44.50;;;;;;4932431;29;20717;-51
2021/11/15 10:47:28;;;;;;;3.40;2.90;;;23.30;44.60;;;;;;4928294;29;20263;-52
2021/11/15 10:50:10;;;;;;;3.97;3.15;;;23.30;44.60;;;;;;4933790;29;20715;-50
2021/11/15 10:52:42;;;;;;;3.25;2.70;;;23.30;44.60;;;;;;4932691;29;20202;-48
2021/11/15 10:55:15;;;;;;;3.90;2.75;;;23.20;44.60;;;;;;4932114;29;20315;-49
2021/11/15 10:57:48;;;;;;;4.22;2.95;;;23.20;44.70;;;;;;4930528;29;20664;-52
2021/11/15 11:00:22;;;;;;;3.92;2.70;;;23.20;44.80;;;;;;4927331;29;20204;-51
2021/11/15 11:02:56;;;;;;;3.80;3.10;;;23.20;44.80;;;;;;4932493;29;20286;-55
2021/11/15 11:05:28;;;;;;;3.72;2.60;;;23.20;44.80;;;;;;4932870;29;20898;-53
2021/11/15 11:08:17;;;;;;;3.45;2.85;;;23.20;44.80;;;;;;4934548;29;20265;-51
2021/11/15 11:10:59;;;;;;;3.58;3.00;;;23.10;44.80;;;;;;4933891;29;20286;-52
2021/11/15 11:13:41;;;;;;;3.30;2.80;;;23.10;44.80;;;;;;4932270;29;20315;-56
2021/11/15 11:16:12;;;;;;;3.70;2.65;;;23.00;44.80;;;;;;4932212;29;20243;-55
2021/11/15 11:18:46;;;;;;;3.75;2.72;;;23.00;44.80;;;;;;4932043;29;20291;-52
2021/11/15 11:24:22;;;;;;;2.95;2.60;;;23.00;45.00;;;;;;4932178;29;20223;-52
2021/11/15 11:26:57;;;;;;;3.20;2.63;;;23.00;45.10;;;;;;4931124;29;20866;-55
2021/11/15 11:29:31;;;;;;;2.63;2.42;;;22.90;45.00;;;;;;4931511;29;20570;-52
2021/11/15 11:32:05;;;;;;;3.50;2.63;;;22.90;45.10;;;;;;4932950;29;20197;-51
2021/11/15 11:34:38;;;;;;;3.33;2.60;;;22.90;45.10;;;;;;4932986;29;20219;-53
2021/11/15 11:37:10;;;;;;;2.80;2.60;;;22.90;45.10;;;;;;4932511;29;20299;-52
2021/11/15 11:39:41;;;;;;;4.03;2.88;;;22.90;45.20;;;;;;4930581;29;20298;-50
2021/11/15 11:42:13;;;;;;;2.90;2.53;;;22.80;45.20;;;;;;4931300;29;20283;-52
2021/11/15 11:44:45;;;;;;;3.63;2.22;;;22.80;45.30;;;;;;4930565;29;20215;-52
2021/11/15 11:47:20;;;;;;;3.38;2.30;;;22.80;45.20;;;;;;4930738;29;20306;-51
2021/11/15 11:49:53;;;;;;;3.05;2.72;;;22.70;45.20;;;;;;4932430;29;20282;-52
2021/11/15 11:52:28;;;;;;;2.85;2.28;;;22.70;45.20;;;;;;4933403;29;20282;-52
2021/11/15 11:54:59;;;;;;;2.97;2.35;;;22.70;45.30;;;;;;4932132;29;20302;-51
2021/11/15 11:57:32;;;;;;;3.38;2.50;;;22.70;45.30;;;;;;4929946;29;20203;-52
2021/11/15 12:00:07;;;;;;;3.88;2.50;;;22.60;45.20;;;;;;4930445;29;20239;-52
2021/11/15 12:02:38;;;;;;;3.08;2.53;;;22.60;45.30;;;;;;4932315;29;20242;-53
2021/11/15 12:05:12;;;;;;;2.30;2.10;;;22.60;45.30;;;;;;4929855;29;20310;-53
2021/11/15 12:07:52;;;;;;;2.78;2.30;;;22.60;45.30;;;;;;4930966;29;20675;-51
2021/11/15 12:10:41;;;;;;;2.63;2.25;;;22.60;45.40;;;;;;4931535;29;20283;-52
2021/11/15 12:13:14;;;;;;;2.38;2.17;;;22.60;45.50;;;;;;4931647;29;20200;-50
2021/11/15 12:15:55;;;;;;;2.25;2.05;;;22.50;45.30;;;;;;4931584;29;20786;-52
2021/11/15 12:18:28;;;;;;;2.55;2.30;;;22.50;46.00;;;;;;4931220;29;20215;-47
2021/11/15 12:21:21;;;;;;;2.35;2.15;;;22.50;45.50;;;;;;4931432;29;20203;-50
2021/11/15 12:24:16;;;;;;;2.30;2.10;;;22.50;45.50;;;;;;4931033;29;20426;-49
2021/11/15 12:26:49;;;;;;;2.58;1.90;;;22.40;45.60;;;;;;4929671;29;20323;-51
2021/11/15 12:29:30;;;;;;;2.67;2.28;;;22.40;45.60;;;;;;4931330;29;20298;-53
2021/11/15 12:32:02;;;;;;;2.35;1.77;;;22.40;45.60;;;;;;4930059;29;20743;-50
2021/11/15 12:34:35;;;;;;;2.22;2.03;;;22.40;45.60;;;;;;4929461;29;20303;-50
2021/11/15 12:37:09;;;;;;;2.58;2.13;;;22.30;45.60;;;;;;4930422;29;20781;-52
2021/11/15 12:39:45;;;;;;;2.22;2.00;;;22.30;45.70;;;;;;4932002;29;20227;-50
2021/11/15 12:42:33;;;;;;;2.05;1.85;;;22.30;46.30;;;;;;4929815;29;20287;-48
2021/11/15 12:45:21;;;;;;;2.30;1.98;;;22.30;45.70;;;;;;4929417;29;20263;-53
2021/11/15 12:47:52;;;;;;;2.35;1.95;;;22.30;45.80;;;;;;4920628;29;20235;-51
2021/11/15 12:50:25;;;;;;;2.75;1.75;;;22.30;45.80;;;;;;4923758;29;20290;-52
2021/11/15 12:52:59;;;;;;;2.22;1.90;;;22.20;45.80;;;;;;4930061;29;20377;-49
2021/11/15 12:55:34;;;;;;;2.55;1.90;;;22.20;45.80;;;;;;4931273;29;20251;-50
2021/11/15 12:58:05;;;;;;;2.25;1.77;;;22.20;45.80;;;;;;4926594;29;20543;-51
2021/11/15 13:00:39;;;;;;;2.03;1.80;;;22.20;45.90;;;;;;4931293;29;20231;-51
2021/11/15 13:03:11;;;;;;;2.40;2.20;;;22.20;45.90;;;;;;4930500;29;20290;-49
2021/11/15 13:05:43;;;;;;;2.63;1.70;;;22.20;45.90;;;;;;4930228;29;20246;-54
2021/11/15 13:08:16;;;;;;;2.10;1.70;;;22.10;45.90;;;;;;4927515;29;20307;-55
2021/11/15 13:10:48;;;;;;;2.17;1.70;;;22.10;46.00;;;;;;4921285;29;20250;-50
2021/11/15 13:13:19;;;;;;;1.65;1.50;;;22.10;46.00;;;;;;4929276;29;20195;-49
2021/11/15 13:15:50;;;;;;;1.80;1.70;;;22.10;46.00;;;;;;4929879;29;20295;-50